createdAt,value
2023-03-17T00:01:16.485Z,8.05
2023-03-17T00:03:44.615Z,7.99
2023-03-17T00:06:17.745Z,7.96
2023-03-17T00:08:46.267Z,7.89
2023-03-17T00:11:15.064Z,7.86
2023-03-17T00:13:42.075Z,7.82
2023-03-17T00:16:16.894Z,7.79
2023-03-17T00:18:44.668Z,7.73
2023-03-17T00:21:16.716Z,7.74
2023-03-17T00:23:50.725Z,7.73
2023-03-17T00:26:18.004Z,7.70
2023-03-17T00:28:44.808Z,7.65
2023-03-17T00:31:21.172Z,7.66
2023-03-17T00:33:49.401Z,7.61
2023-03-17T00:36:25.977Z,7.61
2023-03-17T00:38:52.739Z,7.57
2023-03-17T00:41:19.731Z,7.51
2023-03-17T00:43:46.269Z,7.51
2023-03-17T00:46:17.710Z,7.51
2023-03-17T00:48:45.776Z,7.49
2023-03-17T00:51:13.039Z,7.44
2023-03-17T00:53:39.831Z,7.36
2023-03-17T00:56:14.488Z,7.39
2023-03-17T00:58:42.041Z,7.37
2023-03-17T01:01:09.080Z,7.32
2023-03-17T01:03:35.627Z,7.32
2023-03-17T01:06:04.640Z,7.24
2023-03-17T01:08:31.681Z,7.18
2023-03-17T01:10:59.541Z,7.16
2023-03-17T01:13:26.589Z,7.11
2023-03-17T01:15:53.185Z,7.10
2023-03-17T01:18:22.703Z,7.10
2023-03-17T01:20:50.252Z,7.15
2023-03-17T01:23:17.679Z,7.17
2023-03-17T01:25:44.865Z,7.18
2023-03-17T01:28:16.834Z,7.18
2023-03-17T01:30:45.110Z,7.18
2023-03-17T01:33:13.133Z,7.17
2023-03-17T01:35:41.330Z,7.12
2023-03-17T01:38:08.601Z,7.10
2023-03-17T01:40:37.538Z,7.11
2023-03-17T01:43:08.168Z,7.06
2023-03-17T01:46:12.362Z,7.03
2023-03-17T01:48:45.769Z,6.98
2023-03-17T01:51:17.710Z,6.93
2023-03-17T01:53:48.195Z,6.85
2023-03-17T01:56:16.915Z,6.85
2023-03-17T01:58:46.687Z,6.83
2023-03-17T02:01:14.218Z,6.80
2023-03-17T02:03:42.117Z,6.73
2023-03-17T02:06:09.557Z,6.67
2023-03-17T02:08:36.391Z,6.62
2023-03-17T02:11:05.040Z,6.63
2023-03-17T02:13:32.958Z,6.59
2023-03-17T02:15:59.520Z,6.58
2023-03-17T02:18:25.985Z,6.59
2023-03-17T02:21:27.237Z,6.60
2023-03-17T02:23:53.713Z,6.61
2023-03-17T02:26:22.188Z,6.58
2023-03-17T02:28:49.195Z,6.56
2023-03-17T02:31:16.469Z,6.57
2023-03-17T02:33:43.400Z,6.56
2023-03-17T02:36:10.952Z,6.53
2023-03-17T02:38:37.914Z,6.51
2023-03-17T02:41:06.358Z,6.53
2023-03-17T02:43:33.198Z,6.53
2023-03-17T02:45:59.698Z,6.51
2023-03-17T02:48:26.350Z,6.48
2023-03-17T02:50:52.897Z,6.47
2023-03-17T02:53:19.826Z,6.46
2023-03-17T02:55:46.335Z,6.48
2023-03-17T02:58:12.880Z,6.44
2023-03-17T03:00:40.458Z,6.47
2023-03-17T03:03:06.955Z,6.51
2023-03-17T03:05:33.475Z,6.50
2023-03-17T03:07:59.909Z,6.52
2023-03-17T03:10:27.074Z,6.52
2023-03-17T03:12:53.629Z,6.56
2023-03-17T03:15:20.922Z,6.57
2023-03-17T03:17:47.381Z,6.57
2023-03-17T03:20:14.623Z,6.60
2023-03-17T03:22:41.159Z,6.63
2023-03-17T03:25:08.733Z,6.66
2023-03-17T03:27:35.219Z,6.66
2023-03-17T03:30:02.045Z,6.71
2023-03-17T03:32:28.568Z,6.73
2023-03-17T03:34:55.094Z,6.81
2023-03-17T03:37:21.762Z,6.88
2023-03-17T03:39:48.300Z,6.89
2023-03-17T03:42:14.764Z,6.97
2023-03-17T03:44:41.253Z,7.03
2023-03-17T03:47:08.292Z,7.09
2023-03-17T03:49:34.857Z,7.15
2023-03-17T03:52:01.434Z,7.23
2023-03-17T03:54:27.904Z,7.27
2023-03-17T03:56:54.325Z,7.30
2023-03-17T03:59:20.959Z,7.32
2023-03-17T04:01:47.456Z,7.38
2023-03-17T04:04:13.949Z,7.40
2023-03-17T04:06:40.459Z,7.45
2023-03-17T04:09:07.517Z,7.44
2023-03-17T04:11:34.029Z,7.50
2023-03-17T04:14:00.988Z,7.49
2023-03-17T04:16:28.209Z,7.49
2023-03-17T04:18:54.854Z,7.54
2023-03-17T04:21:21.718Z,7.55
2023-03-17T04:23:48.190Z,7.56
2023-03-17T04:26:14.778Z,7.57
2023-03-17T04:28:41.242Z,7.56
2023-03-17T04:31:10.752Z,7.61
2023-03-17T04:33:37.218Z,7.64
2023-03-17T04:36:04.577Z,7.67
2023-03-17T04:38:31.027Z,7.69
2023-03-17T04:40:57.502Z,7.73
2023-03-17T04:43:24.502Z,7.71
2023-03-17T04:48:17.669Z,7.73
2023-03-17T04:50:45.494Z,7.73
2023-03-17T04:53:11.955Z,7.75
2023-03-17T04:55:38.461Z,7.71
2023-03-17T04:58:04.912Z,7.73
2023-03-17T05:00:32.334Z,7.70
2023-03-17T05:02:58.948Z,7.73
2023-03-17T05:05:25.448Z,7.75
2023-03-17T05:07:51.967Z,7.75
2023-03-17T05:10:18.483Z,7.75
2023-03-17T05:12:45.348Z,7.77
2023-03-17T05:15:11.943Z,7.79
2023-03-17T05:17:38.420Z,7.75
2023-03-17T05:20:05.707Z,7.76
2023-03-17T05:22:32.212Z,7.75
2023-03-17T05:24:58.861Z,7.76
2023-03-17T05:27:26.325Z,7.80
2023-03-17T05:29:52.768Z,7.78
2023-03-17T05:32:19.817Z,7.73
2023-03-17T05:34:46.646Z,7.75
2023-03-17T05:37:14.136Z,7.75
2023-03-17T05:39:40.627Z,7.72
2023-03-17T05:42:08.496Z,7.67
2023-03-17T05:44:35.527Z,7.64
2023-03-17T05:47:02.048Z,7.66
2023-03-17T05:49:28.723Z,7.66
2023-03-17T05:51:55.592Z,7.62
2023-03-17T05:54:22.912Z,7.62
2023-03-17T05:56:49.412Z,7.62
2023-03-17T05:59:16.813Z,7.65
2023-03-17T06:01:43.303Z,7.67
2023-03-17T06:04:09.993Z,7.66
2023-03-17T06:06:36.541Z,7.67
2023-03-17T06:09:03.055Z,7.70
2023-03-17T06:11:29.556Z,7.72
2023-03-17T06:13:56.276Z,7.76
2023-03-17T06:16:22.916Z,7.78
2023-03-17T06:18:49.716Z,7.79
2023-03-17T06:21:16.309Z,7.81
2023-03-17T06:23:43.492Z,7.83
2023-03-17T06:26:09.960Z,7.85
2023-03-17T06:28:36.437Z,7.85
2023-03-17T06:31:04.706Z,7.89
2023-03-17T06:33:34.545Z,7.86
2023-03-17T06:36:01.752Z,7.89
2023-03-17T06:38:28.385Z,7.89
2023-03-17T06:40:54.864Z,7.91
2023-03-17T06:43:22.216Z,7.95
2023-03-17T06:45:48.700Z,7.95
2023-03-17T06:48:15.244Z,7.98
2023-03-17T06:50:41.726Z,8.04
2023-03-17T06:53:08.260Z,8.09
2023-03-17T06:55:34.797Z,8.15
2023-03-17T06:58:02.976Z,8.17
2023-03-17T07:00:30.336Z,8.23
2023-03-17T07:02:57.769Z,8.28
2023-03-17T07:05:24.261Z,8.32
2023-03-17T07:07:50.783Z,8.35
2023-03-17T07:10:18.070Z,8.43
2023-03-17T07:12:45.107Z,8.47
2023-03-17T07:15:12.523Z,8.49
2023-03-17T07:17:39.095Z,8.53
2023-03-17T07:20:06.504Z,8.55
2023-03-17T07:22:33.191Z,8.62
2023-03-17T07:24:59.896Z,8.64
2023-03-17T07:27:26.610Z,8.70
2023-03-17T07:29:53.184Z,8.77
2023-03-17T07:32:20.057Z,8.81
2023-03-17T07:34:46.615Z,8.83
2023-03-17T07:37:13.237Z,8.91
2023-03-17T07:39:40.026Z,8.98
2023-03-17T07:42:06.936Z,9.05
2023-03-17T07:44:33.740Z,9.10
2023-03-17T07:47:00.398Z,9.13
2023-03-17T07:49:40.454Z,9.18
2023-03-17T07:52:08.696Z,9.23
2023-03-17T07:54:36.281Z,9.23
2023-03-17T07:57:03.499Z,9.37
2023-03-17T07:59:30.263Z,9.41
2023-03-17T08:01:59.676Z,9.45
2023-03-17T08:04:27.529Z,9.54
2023-03-17T08:06:54.543Z,9.62
2023-03-17T08:09:24.539Z,9.67
2023-03-17T08:11:51.098Z,9.79
2023-03-17T08:14:17.604Z,9.95
2023-03-17T08:16:44.295Z,10.03
2023-03-17T08:19:11.139Z,10.12
2023-03-17T08:21:37.711Z,10.21
2023-03-17T08:24:05.306Z,10.39
2023-03-17T08:26:32.236Z,10.51
2023-03-17T08:28:58.990Z,10.62
2023-03-17T08:31:25.817Z,10.76
2023-03-17T08:33:56.590Z,10.82
2023-03-17T08:36:23.904Z,10.83
2023-03-17T08:38:50.651Z,11.03
2023-03-17T08:41:20.308Z,11.17
2023-03-17T08:43:47.871Z,11.36
2023-03-17T08:46:27.180Z,11.39
2023-03-17T08:48:56.265Z,11.47
2023-03-17T08:51:26.603Z,11.53
2023-03-17T08:53:54.909Z,11.51
2023-03-17T08:56:22.052Z,11.73
2023-03-17T08:58:49.236Z,11.86
2023-03-17T09:01:17.006Z,11.95
2023-03-17T09:03:43.961Z,11.99
2023-03-17T09:06:12.359Z,12.05
2023-03-17T09:08:44.429Z,12.06
2023-03-17T09:11:13.758Z,12.15
2023-03-17T09:13:41.390Z,12.22
2023-03-17T09:16:08.886Z,12.33
2023-03-17T09:18:36.172Z,12.52
2023-03-17T09:21:04.059Z,12.70
2023-03-17T09:23:31.425Z,12.86
2023-03-17T09:25:58.067Z,12.73
2023-03-17T09:28:24.822Z,12.64
2023-03-17T09:30:51.671Z,12.70
2023-03-17T09:33:18.664Z,12.71
2023-03-17T09:35:45.372Z,12.67
2023-03-17T09:38:12.775Z,12.63
2023-03-17T09:40:48.066Z,12.68
2023-03-17T09:43:29.271Z,12.67
2023-03-17T09:45:56.163Z,12.75
2023-03-17T09:48:28.395Z,12.94
2023-03-17T09:51:04.826Z,13.13
2023-03-17T09:53:46.197Z,13.26
2023-03-17T09:56:15.592Z,13.45
2023-03-17T09:58:52.794Z,13.51
2023-03-17T10:01:19.683Z,13.70
2023-03-17T10:03:47.397Z,13.60
2023-03-17T10:06:44.876Z,13.60
2023-03-17T10:09:37.368Z,13.49
2023-03-17T10:12:11.044Z,13.62
2023-03-17T10:15:01.888Z,13.59
2023-03-17T10:17:39.352Z,13.52
2023-03-17T10:20:16.577Z,13.41
2023-03-17T10:22:48.188Z,13.38
2023-03-17T10:25:24.344Z,13.46
2023-03-17T10:28:03.439Z,13.30
2023-03-17T10:30:33.721Z,13.34
2023-03-17T10:33:03.342Z,13.70
2023-03-17T10:35:35.966Z,14.00
2023-03-17T10:38:22.895Z,14.17
2023-03-17T10:41:02.370Z,14.34
2023-03-17T10:43:35.591Z,14.28
2023-03-17T10:46:05.605Z,14.18
2023-03-17T10:48:37.318Z,14.19
2023-03-17T10:51:11.297Z,14.37
2023-03-17T10:53:44.799Z,14.52
2023-03-17T10:56:23.478Z,14.81
2023-03-17T10:58:52.542Z,15.17
2023-03-17T11:01:29.556Z,15.47
2023-03-17T11:03:56.361Z,15.34
2023-03-17T11:06:39.159Z,15.17
2023-03-17T11:09:09.590Z,15.18
2023-03-17T11:11:47.312Z,15.23
2023-03-17T11:14:19.084Z,15.25
2023-03-17T11:17:00.978Z,15.49
2023-03-17T11:19:42.833Z,15.53
2023-03-17T11:22:38.553Z,15.45
2023-03-17T11:25:23.530Z,15.51
2023-03-17T11:28:02.824Z,15.33
2023-03-17T11:30:58.638Z,15.33
2023-03-17T11:33:47.065Z,15.34
2023-03-17T11:36:37.699Z,15.51
2023-03-17T11:39:17.443Z,15.69
2023-03-17T11:41:55.763Z,15.94
2023-03-17T11:44:40.378Z,16.09
2023-03-17T11:47:38.596Z,16.30
2023-03-17T11:50:35.257Z,16.30
2023-03-17T11:53:17.103Z,16.47
2023-03-17T11:55:54.436Z,16.57
2023-03-17T11:58:31.972Z,16.63
2023-03-17T12:01:00.807Z,16.60
2023-03-17T12:03:34.224Z,16.68
2023-03-17T12:06:07.872Z,16.82
2023-03-17T12:08:37.796Z,16.89
2023-03-17T12:11:09.227Z,16.72
2023-03-17T12:13:46.159Z,16.64
2023-03-17T12:16:21.350Z,16.40
2023-03-17T12:19:06.376Z,16.46
2023-03-17T12:21:36.881Z,16.52
2023-03-17T12:24:15.178Z,16.65
2023-03-17T12:26:59.463Z,16.79
2023-03-17T12:29:57.217Z,16.90
2023-03-17T12:32:42.703Z,16.65
2023-03-17T12:35:34.879Z,16.62
2023-03-17T12:38:09.084Z,16.91
2023-03-17T12:40:40.692Z,17.01
2023-03-17T12:43:37.885Z,17.15
2023-03-17T12:46:33.983Z,17.14
2023-03-17T12:49:15.273Z,17.18
2023-03-17T12:52:09.126Z,17.22
2023-03-17T12:54:39.440Z,17.19
2023-03-17T12:57:42.707Z,17.20
2023-03-17T13:00:27.086Z,17.27
2023-03-17T13:03:11.586Z,17.30
2023-03-17T13:05:38.280Z,17.36
2023-03-17T13:08:10.800Z,17.41
2023-03-17T13:10:51.061Z,17.52
2023-03-17T13:13:44.549Z,17.55
2023-03-17T13:16:33.548Z,17.37
2023-03-17T13:19:31.198Z,17.36
2023-03-17T13:22:01.024Z,17.35
2023-03-17T13:24:47.951Z,17.42
2023-03-17T13:27:34.701Z,17.33
2023-03-17T13:30:24.234Z,17.37
2023-03-17T13:33:09.941Z,17.34
2023-03-17T13:35:47.720Z,17.37
2023-03-17T13:38:32.640Z,17.36
2023-03-17T13:41:08.128Z,17.32
2023-03-17T13:44:03.121Z,17.14
2023-03-17T13:46:39.944Z,17.16
2023-03-17T13:49:15.565Z,16.99
2023-03-17T13:51:52.741Z,16.93
2023-03-17T13:54:28.743Z,17.00
2023-03-17T13:57:14.890Z,17.06
2023-03-17T13:59:50.429Z,17.05
2023-03-17T14:02:23.779Z,16.99
2023-03-17T14:04:57.545Z,17.01
2023-03-17T14:07:28.215Z,17.06
2023-03-17T14:10:04.104Z,16.91
2023-03-17T14:12:46.851Z,16.74
2023-03-17T14:15:40.632Z,16.72
2023-03-17T14:18:16.468Z,16.75
2023-03-17T14:20:58.176Z,16.67
2023-03-17T14:23:25.893Z,16.83
2023-03-17T14:25:55.951Z,16.89
2023-03-17T14:28:34.281Z,17.02
2023-03-17T14:31:07.247Z,17.12
2023-03-17T14:33:39.704Z,17.23
2023-03-17T14:36:09.160Z,17.10
2023-03-17T14:38:37.619Z,17.14
2023-03-17T14:41:14.263Z,17.51
2023-03-17T14:43:42.621Z,17.60
2023-03-17T14:46:27.782Z,17.86
2023-03-17T14:49:14.379Z,18.11
2023-03-17T14:51:42.030Z,18.21
2023-03-17T14:54:19.103Z,18.32
2023-03-17T14:57:14.679Z,18.50
2023-03-17T14:59:43.219Z,18.79
2023-03-17T15:02:23.142Z,18.90
2023-03-17T15:04:58.763Z,18.98
2023-03-17T15:07:40.370Z,19.08
2023-03-17T15:10:24.631Z,18.96
2023-03-17T15:13:00.967Z,18.95
2023-03-17T15:15:32.592Z,18.81
2023-03-17T15:18:03.302Z,18.92
2023-03-17T15:20:35.235Z,18.90
2023-03-17T15:23:14.589Z,18.89
2023-03-17T15:25:47.382Z,18.93
2023-03-17T15:28:19.134Z,18.81
2023-03-17T15:30:48.728Z,19.08
2023-03-17T15:33:34.167Z,19.30
2023-03-17T15:36:01.630Z,19.31
2023-03-17T15:38:29.085Z,19.14
2023-03-17T15:40:56.125Z,19.18
2023-03-17T15:43:22.807Z,18.95
2023-03-17T15:46:01.488Z,18.64
2023-03-17T15:48:31.416Z,18.44
2023-03-17T15:51:00.201Z,18.23
2023-03-17T15:53:26.936Z,17.97
2023-03-17T15:55:53.490Z,17.95
2023-03-17T15:58:20.389Z,17.99
2023-03-17T16:00:54.596Z,18.02
2023-03-17T16:03:26.975Z,17.95
2023-03-17T16:05:53.604Z,17.90
2023-03-17T16:08:20.179Z,17.77
2023-03-17T16:10:46.962Z,17.62
2023-03-17T16:13:14.031Z,17.51
2023-03-17T16:15:42.812Z,17.42
2023-03-17T16:18:16.792Z,17.42
2023-03-17T16:20:46.336Z,17.34
2023-03-17T16:23:22.014Z,17.31
2023-03-17T16:25:49.336Z,17.24
2023-03-17T16:28:34.065Z,17.19
2023-03-17T16:31:01.997Z,17.04
2023-03-17T16:33:32.272Z,16.94
2023-03-17T16:36:00.428Z,16.80
2023-03-17T16:38:29.520Z,16.67
2023-03-17T16:41:01.584Z,16.68
2023-03-17T16:43:35.772Z,16.55
2023-03-17T16:46:03.376Z,16.48
2023-03-17T16:48:31.160Z,16.40
2023-03-17T16:50:58.180Z,16.32
2023-03-17T16:53:25.653Z,16.23
2023-03-17T16:55:54.110Z,16.23
2023-03-17T16:58:26.307Z,16.14
2023-03-17T17:00:57.455Z,16.06
2023-03-17T17:03:24.329Z,15.95
2023-03-17T17:05:51.140Z,15.92
2023-03-17T17:08:17.724Z,15.83
2023-03-17T17:10:44.210Z,15.77
2023-03-17T17:13:12.323Z,15.62
2023-03-17T17:15:40.093Z,15.61
2023-03-17T17:18:18.770Z,15.57
2023-03-17T17:20:46.043Z,15.46
2023-03-17T17:23:18.672Z,15.37
2023-03-17T17:25:45.543Z,15.30
2023-03-17T17:28:15.758Z,15.13
2023-03-17T17:30:45.191Z,15.05
2023-03-17T17:33:12.569Z,14.91
2023-03-17T17:35:39.395Z,14.76
2023-03-17T17:38:15.474Z,14.75
2023-03-17T17:40:42.140Z,14.74
2023-03-17T17:43:09.838Z,14.75
2023-03-17T17:45:36.831Z,14.75
2023-03-17T17:48:04.008Z,14.68
2023-03-17T17:50:31.361Z,14.66
2023-03-17T17:53:04.790Z,14.65
2023-03-17T17:55:33.682Z,14.55
2023-03-17T17:58:01.156Z,14.48
2023-03-17T18:00:28.282Z,14.40
2023-03-17T18:02:54.849Z,14.36
2023-03-17T18:05:21.918Z,14.28
2023-03-17T18:07:48.646Z,14.20
2023-03-17T18:10:22.500Z,14.08
2023-03-17T18:12:49.076Z,13.98
2023-03-17T18:15:16.076Z,13.94
2023-03-17T18:17:43.531Z,13.82
2023-03-17T18:20:13.669Z,13.73
2023-03-17T18:22:40.887Z,13.66
2023-03-17T18:25:10.166Z,13.58
2023-03-17T18:27:38.332Z,13.50
2023-03-17T18:30:11.667Z,13.52
2023-03-17T18:32:38.960Z,13.49
2023-03-17T18:35:10.479Z,13.48
2023-03-17T18:37:37.253Z,13.45
2023-03-17T18:40:14.208Z,13.47
2023-03-17T18:42:42.891Z,13.44
2023-03-17T18:45:11.622Z,13.42
2023-03-17T18:47:39.138Z,13.41
2023-03-17T18:50:08.070Z,13.43
2023-03-17T18:52:36.536Z,13.42
2023-03-17T18:55:04.270Z,13.29
2023-03-17T18:57:31.863Z,13.12
2023-03-17T18:59:59.076Z,13.12
2023-03-17T19:02:26.177Z,13.04
2023-03-17T19:04:52.912Z,13.03
2023-03-17T19:07:19.384Z,12.94
2023-03-17T19:09:45.933Z,12.97
2023-03-17T19:12:12.460Z,13.02
2023-03-17T19:14:40.394Z,13.00
2023-03-17T19:17:07.731Z,13.03
2023-03-17T19:19:35.722Z,13.06
2023-03-17T19:22:03.968Z,13.11
2023-03-17T19:24:32.112Z,13.13
2023-03-17T19:26:58.707Z,13.09
2023-03-17T19:29:26.859Z,13.10
2023-03-17T19:31:53.854Z,13.11
2023-03-17T19:34:20.559Z,13.14
2023-03-17T19:36:47.118Z,13.10
2023-03-17T19:39:14.662Z,13.12
2023-03-17T19:41:41.192Z,13.07
2023-03-17T19:44:07.761Z,13.05
2023-03-17T19:46:37.399Z,12.96
2023-03-17T19:49:04.921Z,12.96
2023-03-17T19:51:32.852Z,12.90
2023-03-17T19:54:00.131Z,12.95
2023-03-17T19:56:27.935Z,13.01
2023-03-17T19:58:55.409Z,13.06
2023-03-17T20:01:22.970Z,13.13
2023-03-17T20:03:49.773Z,13.16
2023-03-17T20:06:16.837Z,13.14
2023-03-17T20:08:44.132Z,13.26
2023-03-17T20:11:12.492Z,13.31
2023-03-17T20:13:39.291Z,13.35
2023-03-17T20:16:07.775Z,13.41
2023-03-17T20:18:34.660Z,13.47
2023-03-17T20:21:05.331Z,13.50
2023-03-17T20:23:32.580Z,13.60
2023-03-17T20:25:59.144Z,13.67
2023-03-17T20:28:25.668Z,13.73
2023-03-17T20:30:52.520Z,13.84
2023-03-17T20:33:19.218Z,13.84
2023-03-17T20:35:47.477Z,13.90
2023-03-17T20:38:15.009Z,13.96
2023-03-17T20:40:41.999Z,13.97
2023-03-17T20:43:09.498Z,13.98
2023-03-17T20:45:37.021Z,13.96
2023-03-17T20:48:06.003Z,13.97
2023-03-17T20:50:34.366Z,13.95
2023-03-17T20:53:01.647Z,13.91
2023-03-17T20:55:28.917Z,13.90
2023-03-17T20:57:58.672Z,13.91
2023-03-17T21:00:26.188Z,13.91
2023-03-17T21:02:53.174Z,13.86
2023-03-17T21:05:25.570Z,13.87
2023-03-17T21:07:52.713Z,13.85
2023-03-17T21:10:19.870Z,13.80
2023-03-17T21:12:46.527Z,13.79
2023-03-17T21:15:13.892Z,13.77
2023-03-17T21:17:42.348Z,13.74
2023-03-17T21:20:12.312Z,13.70
2023-03-17T21:22:39.903Z,13.71
2023-03-17T21:25:08.619Z,13.72
2023-03-17T21:27:37.707Z,13.65
2023-03-17T21:30:07.014Z,13.64
2023-03-17T21:32:33.671Z,13.66
2023-03-17T21:35:00.325Z,13.63
2023-03-17T21:37:27.329Z,13.59
2023-03-17T21:39:53.835Z,13.60
2023-03-17T21:42:20.423Z,13.59
2023-03-17T21:44:48.315Z,13.56
2023-03-17T21:47:15.484Z,13.52
2023-03-17T21:49:41.979Z,13.54
2023-03-17T21:52:09.521Z,13.55
2023-03-17T21:54:37.084Z,13.52
2023-03-17T21:57:04.491Z,13.48
2023-03-17T21:59:34.235Z,13.51
2023-03-17T22:02:00.816Z,13.48
2023-03-17T22:04:28.526Z,13.44
2023-03-17T22:06:55.954Z,13.43
2023-03-17T22:09:22.515Z,13.37
2023-03-17T22:11:49.782Z,13.40
2023-03-17T22:14:19.967Z,13.39
2023-03-17T22:16:47.818Z,13.33
2023-03-17T22:19:14.764Z,13.30
2023-03-17T22:21:42.136Z,13.26
2023-03-17T22:24:09.200Z,13.24
2023-03-17T22:26:35.776Z,13.26
2023-03-17T22:29:02.326Z,13.20
2023-03-17T22:31:29.724Z,13.15
2023-03-17T22:33:59.099Z,13.09
2023-03-17T22:36:26.246Z,13.04
2023-03-17T22:38:53.414Z,13.06
2023-03-17T22:41:22.534Z,13.00
2023-03-17T22:43:49.316Z,13.00
2023-03-17T22:46:16.756Z,13.02
2023-03-17T22:48:44.896Z,12.98
2023-03-17T22:51:14.105Z,12.93
2023-03-17T22:53:40.960Z,12.97
2023-03-17T22:56:08.844Z,12.92
2023-03-17T22:58:36.033Z,12.92
2023-03-17T23:01:03.623Z,12.87
2023-03-17T23:03:30.566Z,12.87
2023-03-17T23:06:00.158Z,12.87
2023-03-17T23:08:29.351Z,12.85
2023-03-17T23:10:56.769Z,12.80
2023-03-17T23:13:24.199Z,12.81
2023-03-17T23:15:50.800Z,12.78
2023-03-17T23:18:17.449Z,12.76
2023-03-17T23:20:43.938Z,12.72
2023-03-17T23:23:12.192Z,12.65
2023-03-17T23:25:39.006Z,12.59
2023-03-17T23:28:06.943Z,12.54
2023-03-17T23:30:35.429Z,12.49
2023-03-17T23:33:02.506Z,12.50
2023-03-17T23:35:29.103Z,12.43
2023-03-17T23:37:55.644Z,12.41
2023-03-17T23:40:23.966Z,12.40
2023-03-17T23:42:50.680Z,12.34
2023-03-17T23:45:18.348Z,12.33
2023-03-17T23:47:46.706Z,12.32
2023-03-17T23:50:14.501Z,12.23
2023-03-17T23:52:42.472Z,12.10
2023-03-17T23:55:11.718Z,11.98
2023-03-17T23:57:38.976Z,11.88
